Aeroporto :







RITROVATECI SU...

 
LOGIN :

Iscrizione | Disclaimer

   EN    FR    IT 

 









Sommario :    VFR   VFR Marginale   IFR   IFR Intensivo   IFR Molto Intensivo
Visibilità : 
Base nubi : 
>= 8 km
>= 3000ft
5 / 8 km
1000 / 3000 ft
1500m / 5 km
500 / 1000 ft
800 / 1500m
200 / 500 ft
< 800m
< 200 ft
Simboli :   Temporali  Nebbia  Neve Forte  Precipitazioni Forti  Vento > 20 kt






- Altitudine del aeroporto : 54 ft
- Codice IATA : BEL


SBBE - Val de Cans Int.

ULTIMO METAR :
  • 200400Z 08006KT CAVOK 24/23 Q1012

METARs OBSOLETI :
  • 200300Z 05004KT CAVOK 24/23 Q1012
  • 200200Z 08004KT CAVOK 24/23 Q1012

TAF TAF SBBE
Valido dal 20 a 00 ore il 21 a 00 ore UTC


192100Z 2000/2024 06005KT 9999 FEW025 TN24/2007Z TX31/2016Z
BECMG 2016/2018 36010KT BKN030 FEW035TCU
BECMG 2021/2023 05005KT TS SCT035 FEW040CB RMK PHD
FIR SBAZ / Sudamerica



MetMap, La meteo Aeronautica in un colpo d'occhio ! - Copyright ORBIFLY Dicembre 2007 - Disclaimer

ORBIFLY MET'MAP TEAM :

Programmazione e sviluppo : Alexandra Zaïnal
Concezione : Baudouin d'Aumeries
Aiuto per la programmazione : Marc-Olivier Méhu
Supporto tecnico e logistico : Manuel Goepfert
Aiuto per la traduzione : Arnaldo La Scala

Contatto : metmap@orbifly.com




FONTI E CREDITI :

   NOAA